createdAt,value
2023-02-06T00:04:18.444Z,1039.8
2023-02-06T00:09:59.117Z,1039.8
2023-02-06T00:15:14.410Z,1039.8
2023-02-06T00:20:48.560Z,1039.7
2023-02-06T00:26:30.847Z,1039.7
2023-02-06T00:31:56.914Z,1039.7
2023-02-06T00:37:34.946Z,1039.5
2023-02-06T00:43:13.267Z,1039.6
2023-02-06T00:48:39.405Z,1039.5
2023-02-06T00:54:33.745Z,1039.6
2023-02-06T01:00:12.343Z,1039.6
2023-02-06T01:05:32.902Z,1039.5
2023-02-06T01:11:01.338Z,1039.6
2023-02-06T01:16:42.067Z,1039.7
2023-02-06T01:22:13.585Z,1039.7
2023-02-06T01:27:53.348Z,1039.7
2023-02-06T01:33:30.159Z,1039.7
2023-02-06T01:39:06.535Z,1039.7
2023-02-06T01:44:38.230Z,1039.8
2023-02-06T01:50:06.346Z,1039.8
2023-02-06T01:55:44.346Z,1039.6
2023-02-06T02:01:07.015Z,1039.6
2023-02-06T02:06:45.306Z,1039.5
2023-02-06T02:12:07.612Z,1039.5
2023-02-06T02:17:51.168Z,1039.4
2023-02-06T02:23:19.618Z,1039.4
2023-02-06T02:28:44.431Z,1039.5
2023-02-06T02:34:43.750Z,1039.5
2023-02-06T02:39:52.034Z,1039.3
2023-02-06T02:45:37.623Z,1039.2
2023-02-06T02:51:10.048Z,1039.2
2023-02-06T02:56:33.798Z,1039.2
2023-02-06T03:02:05.220Z,1039.3
2023-02-06T03:07:37.077Z,1039.1
2023-02-06T03:13:22.169Z,1039
2023-02-06T03:18:45.790Z,1039.1
2023-02-06T03:24:34.401Z,1039.2
2023-02-06T03:29:54.170Z,1039.2
2023-02-06T03:35:30.750Z,1039.3
2023-02-06T03:41:19.696Z,1039.2
2023-02-06T03:46:38.165Z,1039.2
2023-02-06T03:52:04.253Z,1039.1
2023-02-06T03:57:47.559Z,1039.1
2023-02-06T04:03:10.118Z,1039.3
2023-02-06T04:08:55.762Z,1039.3
2023-02-06T04:14:35.320Z,1039.4
2023-02-06T04:19:53.745Z,1039.3
2023-02-06T04:25:20.549Z,1039.3
2023-02-06T04:31:04.984Z,1039.2
2023-02-06T04:36:47.628Z,1039.3
2023-02-06T04:42:28.272Z,1039.2
2023-02-06T04:53:10.388Z,1039.1
2023-02-06T04:59:08.264Z,1039
2023-02-06T05:04:37.328Z,1039.1
2023-02-06T05:10:01.034Z,1039
2023-02-06T05:15:47.386Z,1039
2023-02-06T05:21:19.537Z,1039
2023-02-06T05:26:42.031Z,1038.9
2023-02-06T05:32:14.038Z,1039
2023-02-06T05:37:47.157Z,1039
2023-02-06T05:43:17.617Z,1038.9
2023-02-06T05:48:47.514Z,1039
2023-02-06T05:54:32.818Z,1038.9
2023-02-06T05:59:59.641Z,1038.9
2023-02-06T06:05:39.284Z,1038.8
2023-02-06T06:11:15.220Z,1038.9
2023-02-06T06:16:45.667Z,1038.9
2023-02-06T06:22:27.214Z,1038.9
2023-02-06T06:28:12.241Z,1038.8
2023-02-06T06:33:36.949Z,1038.8
2023-02-06T06:39:05.199Z,1038.9
2023-02-06T06:44:51.605Z,1038.9
2023-02-06T06:50:13.596Z,1039
2023-02-06T06:55:53.800Z,1039
2023-02-06T07:01:25.828Z,1039.1
2023-02-06T07:07:05.491Z,1039
2023-02-06T07:12:14.326Z,1039.1
2023-02-06T07:18:12.721Z,1039.1
2023-02-06T07:23:33.934Z,1039
2023-02-06T07:29:20.998Z,1039.1
2023-02-06T07:34:33.556Z,1039
2023-02-06T07:40:43.174Z,1039
2023-02-06T07:45:44.394Z,1039.1
2023-02-06T07:51:27.781Z,1039.1
2023-02-06T07:57:13.423Z,1039
2023-02-06T08:02:25.845Z,1039.1
2023-02-06T08:08:04.211Z,1039
2023-02-06T08:13:36.900Z,1038.8
2023-02-06T08:19:05.619Z,1038.9
2023-02-06T08:24:54.864Z,1038.7
2023-02-06T08:30:13.214Z,1038.7
2023-02-06T08:35:47.919Z,1038.9
2023-02-06T08:41:31.255Z,1038.6
2023-02-06T08:47:10.236Z,1038.8
2023-02-06T08:52:33.709Z,1038.8
2023-02-06T08:58:07.853Z,1038.8
2023-02-06T09:03:34.640Z,1038.8
2023-02-06T09:09:20.077Z,1039
2023-02-06T09:15:04.654Z,1039.1
2023-02-06T09:20:26.787Z,1039.2
2023-02-06T09:25:55.099Z,1039.1
2023-02-06T09:31:49.253Z,1039.1
2023-02-06T09:37:06.420Z,1039
2023-02-06T09:42:37.086Z,1039
2023-02-06T09:48:12.551Z,1038.9
2023-02-06T09:53:51.581Z,1038.9
2023-02-06T09:59:15.525Z,1039
2023-02-06T10:04:52.301Z,1038.9
2023-02-06T10:10:40.637Z,1038.8
2023-02-06T10:15:57.495Z,1038.8
2023-02-06T10:21:45.712Z,1038.9
2023-02-06T10:27:18.724Z,1038.9
2023-02-06T10:32:47.583Z,1039
2023-02-06T10:38:19.770Z,1039
2023-02-06T10:44:06.085Z,1038.9
2023-02-06T10:49:37.262Z,1039
2023-02-06T10:55:10.195Z,1038.9
2023-02-06T11:00:34.615Z,1038.8
2023-02-06T11:06:16.628Z,1038.6
2023-02-06T11:12:01.973Z,1038.5
2023-02-06T11:17:14.491Z,1038.3
2023-02-06T11:23:10.459Z,1038.2
2023-02-06T11:28:45.253Z,1038.2
2023-02-06T11:34:05.160Z,1038.1
2023-02-06T11:39:36.046Z,1037.9
2023-02-06T11:45:17.316Z,1037.9
2023-02-06T11:50:57.488Z,1037.9
2023-02-06T11:56:19.147Z,1037.7
2023-02-06T12:01:49.493Z,1037.7
2023-02-06T12:07:26.892Z,1037.5
2023-02-06T12:13:18.489Z,1037.3
2023-02-06T12:18:29.933Z,1037.3
2023-02-06T12:24:03.248Z,1037.3
2023-02-06T12:29:42.906Z,1037.2
2023-02-06T12:35:29.833Z,1037.3
2023-02-06T12:41:00.240Z,1037.1
2023-02-06T12:46:22.491Z,1037
2023-02-06T12:51:51.863Z,1036.9
2023-02-06T12:57:46.047Z,1036.8
2023-02-06T13:03:01.177Z,1036.8
2023-02-06T13:08:52.999Z,1036.8
2023-02-06T13:14:26.162Z,1036.6
2023-02-06T13:19:54.801Z,1036.5
2023-02-06T13:25:28.340Z,1036.5
2023-02-06T13:30:58.881Z,1036.5
2023-02-06T13:36:37.707Z,1036.4
2023-02-06T13:42:07.168Z,1036.4
2023-02-06T13:47:36.371Z,1036.2
2023-02-06T13:53:26.676Z,1036.4
2023-02-06T13:59:10.907Z,1036.5
2023-02-06T14:04:37.193Z,1036.4
2023-02-06T14:10:13.052Z,1036.4
2023-02-06T14:15:47.561Z,1036.2
2023-02-06T14:21:19.067Z,1036.2
2023-02-06T14:26:56.579Z,1036
2023-02-06T14:32:31.777Z,1036
2023-02-06T14:38:09.839Z,1036
2023-02-06T14:43:44.063Z,1036
2023-02-06T14:49:11.913Z,1036
2023-02-06T14:54:29.436Z,1036
2023-02-06T15:00:12.669Z,1036.1
2023-02-06T15:05:48.485Z,1036.1
2023-02-06T15:11:14.347Z,1036.2
2023-02-06T15:16:59.593Z,1036.2
2023-02-06T15:22:30.027Z,1036.3
2023-02-06T15:28:07.748Z,1036.3
2023-02-06T15:33:51.750Z,1036.3
2023-02-06T15:39:11.174Z,1036.1
2023-02-06T15:44:56.321Z,1036.1
2023-02-06T15:50:31.583Z,1036.1
2023-02-06T15:55:47.892Z,1036.2
2023-02-06T16:01:14.983Z,1036
2023-02-06T16:07:03.385Z,1036.1
2023-02-06T16:12:32.523Z,1036.1
2023-02-06T16:18:02.785Z,1036
2023-02-06T16:23:38.496Z,1036.1
2023-02-06T16:29:10.966Z,1036.1
2023-02-06T16:34:35.178Z,1036.1
2023-02-06T16:40:31.154Z,1036.1
2023-02-06T16:45:56.721Z,1036.2
2023-02-06T16:51:43.508Z,1036.3
2023-02-06T16:57:11.708Z,1036.4
2023-02-06T17:02:32.492Z,1036.4
2023-02-06T17:08:26.030Z,1036.4
2023-02-06T17:13:40.567Z,1036.6
2023-02-06T17:19:10.811Z,1036.5
2023-02-06T17:24:46.972Z,1036.5
2023-02-06T17:30:20.864Z,1036.6
2023-02-06T17:36:14.209Z,1036.7
2023-02-06T17:41:47.325Z,1036.7
2023-02-06T17:46:58.383Z,1036.6
2023-02-06T17:52:44.842Z,1036.6
2023-02-06T17:58:15.853Z,1036.6
2023-02-06T18:03:56.971Z,1036.8
2023-02-06T18:09:33.271Z,1036.6
2023-02-06T18:15:07.998Z,1036.5
2023-02-06T18:20:33.994Z,1036.6
2023-02-06T18:25:57.850Z,1036.6
2023-02-06T18:31:55.202Z,1036.6
2023-02-06T18:37:11.401Z,1036.6
2023-02-06T18:42:59.942Z,1036.7
2023-02-06T18:48:12.157Z,1036.4
2023-02-06T18:54:09.081Z,1036.3
2023-02-06T18:59:29.987Z,1036.3
2023-02-06T19:05:01.522Z,1036
2023-02-06T19:10:34.864Z,1035.9
2023-02-06T19:16:04.313Z,1036
2023-02-06T19:21:34.488Z,1036
2023-02-06T19:27:16.807Z,1035.9
2023-02-06T19:32:41.967Z,1036
2023-02-06T19:38:39.539Z,1035.9
2023-02-06T19:43:57.955Z,1035.9
2023-02-06T19:49:32.708Z,1035.7
2023-02-06T19:55:05.765Z,1035.7
2023-02-06T20:00:54.897Z,1035.5
2023-02-06T20:06:22.475Z,1035.6
2023-02-06T20:11:47.341Z,1035.6
2023-02-06T20:17:15.681Z,1035.5
2023-02-06T20:22:45.766Z,1035.6
2023-02-06T20:28:25.225Z,1035.6
2023-02-06T20:33:57.863Z,1035.7
2023-02-06T20:39:50.536Z,1035.8
2023-02-06T20:45:08.397Z,1036
2023-02-06T20:50:56.507Z,1036.2
2023-02-06T20:56:26.067Z,1036.3
2023-02-06T21:02:00.042Z,1036.4
2023-02-06T21:07:41.573Z,1036.3
2023-02-06T21:13:02.660Z,1036.1
2023-02-06T21:18:30.995Z,1035.9
2023-02-06T21:24:03.436Z,1035.7
2023-02-06T21:29:44.012Z,1035.5
2023-02-06T21:35:19.566Z,1035.5
2023-02-06T21:41:06.205Z,1035.5
2023-02-06T21:46:31.169Z,1035.4
2023-02-06T21:51:57.799Z,1035.3
2023-02-06T21:57:39.617Z,1035.4
2023-02-06T22:03:13.210Z,1035.2
2023-02-06T22:08:44.060Z,1035.1
2023-02-06T22:14:04.809Z,1034.8
2023-02-06T22:19:59.368Z,1034.8
2023-02-06T22:25:11.879Z,1034.7
2023-02-06T22:30:53.474Z,1034.5
2023-02-06T22:36:37.338Z,1034.3
2023-02-06T22:42:13.139Z,1034.3
2023-02-06T22:47:34.245Z,1034.5
2023-02-06T22:53:00.186Z,1034.4
2023-02-06T22:59:00.568Z,1034.3
2023-02-06T23:04:14.648Z,1034.5
2023-02-06T23:09:59.146Z,1034.5
2023-02-06T23:15:27.829Z,1034.3
2023-02-06T23:20:59.090Z,1034.3
2023-02-06T23:26:50.360Z,1034.3
2023-02-06T23:32:09.748Z,1034.1
2023-02-06T23:37:49.470Z,1034.1
2023-02-06T23:43:27.065Z,1034.1
2023-02-06T23:48:57.666Z,1034.1
2023-02-06T23:54:23.846Z,1034.1
2023-02-06T23:59:44.686Z,1034.1
